createdAt,value
2019-01-24T00:04:19.331Z,42.63
2019-01-24T00:09:23.953Z,38.83
2019-01-24T00:14:28.551Z,40.63
2019-01-24T00:19:33.192Z,37.90
2019-01-24T00:24:37.794Z,38.80
2019-01-24T00:29:42.500Z,38.80
2019-01-24T00:34:48.023Z,39.33
2019-01-24T00:39:52.664Z,38.80
2019-01-24T00:44:57.402Z,35.97
2019-01-24T00:50:02.012Z,37.63
2019-01-24T00:55:08.858Z,36.07
2019-01-24T01:00:19.140Z,35.83
2019-01-24T01:05:24.020Z,35.17
2019-01-24T01:10:28.604Z,34.33
2019-01-24T01:15:33.209Z,35.40
2019-01-24T01:20:37.721Z,39.27
2019-01-24T01:25:42.481Z,38.07
2019-01-24T01:30:46.995Z,38.97
2019-01-24T01:35:51.577Z,38.53
2019-01-24T01:40:56.154Z,35.60
2019-01-24T01:46:00.797Z,33.80
2019-01-24T01:51:05.432Z,36.10
2019-01-24T01:56:10.037Z,35.97
2019-01-24T02:01:14.639Z,42.30
2019-01-24T02:06:19.206Z,40.67
2019-01-24T02:11:24.292Z,43.80
2019-01-24T02:16:28.893Z,38.40
2019-01-24T02:21:33.984Z,36.63
2019-01-24T02:26:38.578Z,37.90
2019-01-24T02:31:43.169Z,36.47
2019-01-24T02:36:47.757Z,36.90
2019-01-24T02:41:52.373Z,38.10
2019-01-24T02:46:56.962Z,38.07
2019-01-24T02:52:01.491Z,31.10
2019-01-24T02:57:06.138Z,34.00
2019-01-24T03:02:10.698Z,29.30
2019-01-24T03:07:15.480Z,35.03
2019-01-24T03:12:20.035Z,30.17
2019-01-24T03:17:24.610Z,28.33
2019-01-24T03:22:29.197Z,36.80
2019-01-24T03:27:33.741Z,29.73
2019-01-24T03:32:38.322Z,32.87
2019-01-24T03:37:42.919Z,39.60
2019-01-24T03:42:47.522Z,37.93
2019-01-24T03:47:52.078Z,35.37
2019-01-24T03:52:57.162Z,30.77
2019-01-24T03:58:01.759Z,34.07
2019-01-24T04:03:06.372Z,40.97
2019-01-24T04:08:10.973Z,40.93
2019-01-24T04:13:15.580Z,34.43
2019-01-24T04:18:20.165Z,43.77
2019-01-24T04:23:24.690Z,39.53
2019-01-24T04:28:29.293Z,43.20
2019-01-24T04:33:33.880Z,41.17
2019-01-24T04:38:38.605Z,40.13
2019-01-24T04:43:43.198Z,38.77
2019-01-24T04:48:47.790Z,36.10
2019-01-24T04:53:52.377Z,39.33
2019-01-24T04:58:56.983Z,44.40
2019-01-24T05:04:01.585Z,45.00
2019-01-24T05:09:08.096Z,41.80
2019-01-24T05:14:12.705Z,44.13
2019-01-24T05:19:17.205Z,43.13
2019-01-24T05:24:21.824Z,42.67
2019-01-24T05:29:26.502Z,44.93
2019-01-24T05:34:31.095Z,43.00
2019-01-24T05:39:35.662Z,44.20
2019-01-24T05:44:40.244Z,45.53
2019-01-24T05:49:44.796Z,37.80
2019-01-24T05:54:49.449Z,38.13
2019-01-24T05:59:53.948Z,40.33
2019-01-24T06:04:58.468Z,39.00
2019-01-24T06:10:02.966Z,44.57
2019-01-24T06:15:09.899Z,44.07
2019-01-24T06:20:14.576Z,41.17
2019-01-24T06:25:19.108Z,44.53
2019-01-24T06:30:24.140Z,45.00
2019-01-24T06:35:28.785Z,44.27
2019-01-24T06:40:33.547Z,41.20
2019-01-24T06:45:38.154Z,46.17
2019-01-24T06:50:42.782Z,47.73
2019-01-24T06:55:47.406Z,50.07
2019-01-24T07:00:51.963Z,38.83
2019-01-24T07:05:56.481Z,44.23
2019-01-24T07:11:01.250Z,53.57
2019-01-24T07:16:06.022Z,50.90
2019-01-24T07:21:10.591Z,55.90
2019-01-24T07:26:15.202Z,45.07
2019-01-24T07:31:19.813Z,42.73
2019-01-24T07:36:24.550Z,38.17
2019-01-24T07:41:29.124Z,42.03
2019-01-24T07:46:33.648Z,44.53
2019-01-24T07:51:38.225Z,49.05
2019-01-24T07:56:42.860Z,38.93
2019-01-24T08:01:47.444Z,51.40
2019-01-24T08:06:52.085Z,46.33
2019-01-24T08:11:56.684Z,46.37
2019-01-24T08:17:01.406Z,52.40
2019-01-24T08:22:05.989Z,52.80
2019-01-24T08:27:10.591Z,40.13
2019-01-24T08:32:15.191Z,36.83
2019-01-24T08:37:19.903Z,39.60
2019-01-24T08:42:24.505Z,41.27
2019-01-24T08:47:29.117Z,37.27
2019-01-24T08:52:33.731Z,39.90
2019-01-24T08:57:38.260Z,33.07
2019-01-24T09:02:42.870Z,35.67
2019-01-24T09:07:47.487Z,36.17
2019-01-24T09:12:52.146Z,37.23
2019-01-24T09:17:56.843Z,34.47
2019-01-24T09:23:01.430Z,30.40
2019-01-24T09:28:06.218Z,28.63
2019-01-24T09:33:10.891Z,33.40
2019-01-24T09:38:15.478Z,35.17
2019-01-24T09:43:20.023Z,34.27
2019-01-24T09:48:24.662Z,38.33
2019-01-24T09:53:29.277Z,34.40
2019-01-24T09:58:33.882Z,40.80
2019-01-24T10:03:38.513Z,30.60
2019-01-24T10:08:43.087Z,37.93
2019-01-24T10:13:47.705Z,40.73
2019-01-24T10:18:52.331Z,37.23
2019-01-24T10:23:56.980Z,44.67
2019-01-24T10:29:01.563Z,38.73
2019-01-24T10:34:06.497Z,38.67
2019-01-24T10:39:11.192Z,30.47
2019-01-24T10:44:15.810Z,22.13
2019-01-24T10:49:21.396Z,22.37
2019-01-24T10:54:26.022Z,24.20
2019-01-24T10:59:30.604Z,22.90
2019-01-24T11:04:35.141Z,25.60
2019-01-24T11:09:39.808Z,32.27
2019-01-24T11:14:44.531Z,29.33
2019-01-24T11:19:49.159Z,30.73
2019-01-24T11:24:53.760Z,37.47
2019-01-24T11:29:58.360Z,31.37
2019-01-24T11:35:03.021Z,43.97
2019-01-24T11:40:09.117Z,35.60
2019-01-24T11:45:14.205Z,42.30
2019-01-24T11:50:19.453Z,42.13
2019-01-24T11:55:24.200Z,44.37
2019-01-24T12:00:33.425Z,43.07
2019-01-24T12:05:38.030Z,38.80
2019-01-24T12:10:42.943Z,41.07
2019-01-24T12:15:47.614Z,34.87
2019-01-24T12:20:52.258Z,43.70
2019-01-24T12:25:56.869Z,35.47
2019-01-24T12:31:01.386Z,37.07
2019-01-24T12:36:06.040Z,40.13
2019-01-24T12:41:10.638Z,42.10
2019-01-24T12:46:15.262Z,34.03
2019-01-24T12:51:20.080Z,49.87
2019-01-24T12:56:24.669Z,39.33
2019-01-24T13:01:29.362Z,44.47
2019-01-24T13:06:33.994Z,43.97
2019-01-24T13:11:38.592Z,40.57
2019-01-24T13:16:43.188Z,40.90
2019-01-24T13:21:47.811Z,39.07
2019-01-24T13:26:52.469Z,34.17
2019-01-24T13:31:57.071Z,34.03
2019-01-24T13:37:01.686Z,39.00
2019-01-24T13:42:06.277Z,39.77
2019-01-24T13:47:10.926Z,40.23
2019-01-24T13:52:15.579Z,39.10
2019-01-24T13:57:20.164Z,35.30
2019-01-24T14:02:24.747Z,32.17
2019-01-24T14:07:33.121Z,37.97
2019-01-24T14:12:35.626Z,36.27
2019-01-24T14:17:40.212Z,36.50
2019-01-24T14:22:44.998Z,37.80
2019-01-24T14:27:49.635Z,44.60
2019-01-24T14:32:54.352Z,40.70
2019-01-24T14:37:58.993Z,43.90
2019-01-24T14:43:03.652Z,45.23
2019-01-24T14:48:08.584Z,48.00
2019-01-24T14:53:13.305Z,49.23
2019-01-24T14:58:17.999Z,42.83
2019-01-24T15:03:22.638Z,48.80
2019-01-24T15:08:27.268Z,46.17
2019-01-24T15:13:31.856Z,46.67
2019-01-24T15:18:36.548Z,46.63
2019-01-24T15:23:41.224Z,63.37
2019-01-24T15:28:45.827Z,47.43
2019-01-24T15:33:50.459Z,51.80
2019-01-24T15:38:55.070Z,44.17
2019-01-24T15:43:59.695Z,41.57
2019-01-24T15:49:04.399Z,49.40
2019-01-24T15:54:09.095Z,45.20
2019-01-24T15:59:13.703Z,47.40
2019-01-24T16:04:19.835Z,55.13
2019-01-24T16:09:24.677Z,46.27
2019-01-24T16:14:29.303Z,50.13
2019-01-24T16:19:33.948Z,58.07
2019-01-24T16:24:38.624Z,47.53
2019-01-24T16:29:43.264Z,62.40
2019-01-24T16:34:47.785Z,62.33
2019-01-24T16:39:52.392Z,61.50
2019-01-24T16:44:57.055Z,61.55
2019-01-24T16:50:01.771Z,55.93
2019-01-24T16:55:08.352Z,67.47
2019-01-24T17:00:48.393Z,58.40
2019-01-24T17:05:53.196Z,57.03
2019-01-24T17:10:57.740Z,45.97
2019-01-24T17:16:02.490Z,46.37
2019-01-24T17:21:07.147Z,52.23
2019-01-24T17:26:11.863Z,45.50
2019-01-24T17:31:16.473Z,50.03
2019-01-24T17:36:21.174Z,45.47
2019-01-24T17:41:25.832Z,52.30
2019-01-24T17:46:30.487Z,54.03
2019-01-24T17:51:35.409Z,47.77
2019-01-24T17:56:40.049Z,65.50
2019-01-24T18:01:44.632Z,68.07
2019-01-24T18:06:49.433Z,49.77
2019-01-24T18:11:53.983Z,54.63
2019-01-24T18:16:58.696Z,58.97
2019-01-24T18:22:03.607Z,48.20
2019-01-24T18:27:08.313Z,62.73
2019-01-24T18:32:12.922Z,65.53
2019-01-24T18:37:17.848Z,53.50
2019-01-24T18:42:22.478Z,55.67
2019-01-24T18:47:27.173Z,70.12
2019-01-24T18:52:31.757Z,71.17
2019-01-24T18:57:36.407Z,74.40
2019-01-24T19:02:41.013Z,59.90
2019-01-24T19:07:45.649Z,59.47
2019-01-24T19:12:50.345Z,74.42
2019-01-24T19:17:54.970Z,76.45
2019-01-24T19:22:59.624Z,76.97
2019-01-24T19:28:04.546Z,82.50
2019-01-24T19:33:09.192Z,63.33
2019-01-24T19:38:13.859Z,60.83
2019-01-24T19:43:18.458Z,65.17
2019-01-24T19:48:23.126Z,66.60
2019-01-24T19:53:27.792Z,65.73
2019-01-24T19:58:32.447Z,63.33
2019-01-24T20:03:37.119Z,61.03
2019-01-24T20:08:41.778Z,65.77
2019-01-24T20:13:46.478Z,69.03
2019-01-24T20:18:52.182Z,67.07
2019-01-24T20:23:56.817Z,73.70
2019-01-24T20:29:01.534Z,75.17
2019-01-24T20:34:06.379Z,76.63
2019-01-24T20:39:11.163Z,72.43
2019-01-24T20:44:15.889Z,72.97
2019-01-24T20:49:20.579Z,74.70
2019-01-24T20:54:25.184Z,81.47
2019-01-24T20:59:30.006Z,72.97
2019-01-24T21:04:34.628Z,70.50
2019-01-24T21:09:39.312Z,69.47
2019-01-24T21:14:43.925Z,64.70
2019-01-24T21:19:48.781Z,68.47
2019-01-24T21:24:53.454Z,63.60
2019-01-24T21:29:58.214Z,73.57
2019-01-24T21:35:02.849Z,71.30
2019-01-24T21:40:09.048Z,74.57
2019-01-24T21:45:21.977Z,78.83
2019-01-24T21:50:27.621Z,74.33
2019-01-24T21:55:32.292Z,68.03
2019-01-24T22:00:37.034Z,67.30
2019-01-24T22:05:41.814Z,59.40
2019-01-24T22:10:46.469Z,71.87
2019-01-24T22:15:51.121Z,59.67
2019-01-24T22:20:55.936Z,68.90
2019-01-24T22:26:00.553Z,65.93
2019-01-24T22:31:05.390Z,70.37
2019-01-24T22:36:09.993Z,70.33
2019-01-24T22:41:14.648Z,60.70
2019-01-24T22:46:19.331Z,62.97
2019-01-24T22:51:24.083Z,66.57
2019-01-24T22:56:35.208Z,61.97
2019-01-24T23:01:43.914Z,63.63
2019-01-24T23:06:48.525Z,60.20
2019-01-24T23:11:53.251Z,61.17
2019-01-24T23:16:57.947Z,56.57
2019-01-24T23:22:02.563Z,54.87
2019-01-24T23:27:07.170Z,53.17
2019-01-24T23:32:11.781Z,56.10
2019-01-24T23:37:16.297Z,49.87
2019-01-24T23:42:20.945Z,55.03
2019-01-24T23:47:25.641Z,49.57
2019-01-24T23:52:30.267Z,57.53
2019-01-24T23:57:34.920Z,54.07
